Time;durP1;ratioP1;P1;durP2;ratioP2;P2;SDS_P1;SDS_P2;PMS_P1;PMS_P2;Temp;Humidity;BMP_temperature;BMP_pressure;BME280_temperature;BME280_humidity;BME280_pressure;Samples;Min_cycle;Max_cycle;Signal;HPM_P1;HPM_P2
2021/06/23 00:00:20;;;;;;;;;;;14.20;99.90;;;;;;5131556;27;19925;-83
2021/06/23 00:02:46;;;;;;;;;;;14.10;99.90;;;;;;5112323;27;19919;-83
2021/06/23 00:05:12;;;;;;;;;;;14.20;99.90;;;;;;5112216;27;19929;-82
2021/06/23 00:07:38;;;;;;;;;;;14.20;99.90;;;;;;5129840;27;19972;-82
2021/06/23 00:10:04;;;;;;;;;;;14.20;99.90;;;;;;5130679;27;19927;-82
2021/06/23 00:12:30;;;;;;;;;;;14.20;99.90;;;;;;5109418;27;20355;-83
2021/06/23 00:14:56;;;;;;;;;;;14.20;99.90;;;;;;5114006;27;20013;-83
2021/06/23 00:17:22;;;;;;;;;;;14.20;99.90;;;;;;5130148;27;19939;-83
2021/06/23 00:19:48;;;;;;;;;;;14.30;99.90;;;;;;5130167;27;19919;-83
2021/06/23 00:22:14;;;;;;;;;;;14.30;99.90;;;;;;5131295;27;19925;-83
2021/06/23 00:24:40;;;;;;;;;;;14.40;99.90;;;;;;5131455;27;19919;-83
2021/06/23 00:27:07;;;;;;;;;;;14.40;99.90;;;;;;5112444;27;19926;-82
2021/06/23 00:29:32;;;;;;;;;;;14.50;99.90;;;;;;5129582;27;19920;-83
2021/06/23 00:31:59;;;;;;;;;;;14.50;99.90;;;;;;5109944;27;19962;-83
2021/06/23 00:34:27;;;;;;;;;;;14.50;99.90;;;;;;5127664;27;19949;-83
2021/06/23 00:36:52;;;;;;;;;;;14.50;99.90;;;;;;5130913;27;19916;-82
2021/06/23 00:39:18;;;;;;;;;;;14.50;99.90;;;;;;5111657;27;20059;-82
2021/06/23 00:41:44;;;;;;;;;;;14.50;99.90;;;;;;5129334;27;19930;-82
2021/06/23 00:44:11;;;;;;;;;;;14.60;99.90;;;;;;5131504;27;19919;-82
2021/06/23 00:46:37;;;;;;;;;;;14.60;99.90;;;;;;5127121;27;19977;-82
2021/06/23 00:49:03;;;;;;;;;;;14.60;99.90;;;;;;5111073;27;20665;-83
2021/06/23 00:51:28;;;;;;;;;;;14.60;99.90;;;;;;5130300;27;20382;-82
2021/06/23 00:53:54;;;;;;;;;;;14.60;99.90;;;;;;5130095;27;19967;-82
2021/06/23 00:56:28;;;;;;;;;;;14.50;99.90;;;;;;5089777;27;19926;-83
2021/06/23 00:58:53;;;;;;;;;;;14.60;99.90;;;;;;5129170;27;20745;-83
2021/06/23 01:01:19;;;;;;;;;;;14.50;99.90;;;;;;5125600;27;20465;-83
2021/06/23 01:03:45;;;;;;;;;;;14.50;99.90;;;;;;5101651;27;19915;-82
2021/06/23 01:06:11;;;;;;;;;;;14.50;99.90;;;;;;5108995;28;19924;-83
2021/06/23 01:08:37;;;;;;;;;;;14.50;99.90;;;;;;5126736;27;19930;-83
2021/06/23 01:11:07;;;;;;;;;;;14.50;99.90;;;;;;5110174;27;19966;-83
2021/06/23 01:13:35;;;;;;;;;;;14.50;99.90;;;;;;5098436;27;19988;-82
2021/06/23 01:16:04;;;;;;;;;;;14.50;99.90;;;;;;5128601;27;19923;-83
2021/06/23 01:18:32;;;;;;;;;;;14.50;99.90;;;;;;5129020;27;20363;-83
2021/06/23 01:20:58;;;;;;;;;;;14.50;99.90;;;;;;5130963;27;20374;-83
2021/06/23 01:23:23;;;;;;;;;;;14.50;99.90;;;;;;5095043;27;19922;-82
2021/06/23 01:25:50;;;;;;;;;;;14.50;99.90;;;;;;5127779;27;19923;-83
2021/06/23 01:28:16;;;;;;;;;;;14.40;99.90;;;;;;5092925;27;19970;-83
2021/06/23 01:30:42;;;;;;;;;;;14.40;99.90;;;;;;5103444;28;19919;-83
2021/06/23 01:33:09;;;;;;;;;;;14.40;99.90;;;;;;5107233;27;21339;-83
2021/06/23 01:35:35;;;;;;;;;;;14.50;99.90;;;;;;5111049;27;19923;-83
2021/06/23 01:38:02;;;;;;;;;;;14.40;99.90;;;;;;5127860;27;19924;-83
2021/06/23 01:40:28;;;;;;;;;;;14.40;99.90;;;;;;5129115;27;19916;-82
2021/06/23 01:42:54;;;;;;;;;;;14.40;99.90;;;;;;5110706;27;19919;-83
2021/06/23 01:45:20;;;;;;;;;;;14.40;99.90;;;;;;5126018;27;20740;-83
2021/06/23 01:47:46;;;;;;;;;;;14.40;99.90;;;;;;5125695;27;19923;-83
2021/06/23 01:50:12;;;;;;;;;;;14.30;99.90;;;;;;5130118;27;20382;-82
2021/06/23 01:52:42;;;;;;;;;;;14.40;99.90;;;;;;5124814;27;20385;-83
2021/06/23 01:55:08;;;;;;;;;;;14.30;99.90;;;;;;5126074;27;19915;-83
2021/06/23 01:57:38;;;;;;;;;;;14.30;99.90;;;;;;5128903;27;19947;-83
2021/06/23 02:00:04;;;;;;;;;;;14.30;99.90;;;;;;5126654;27;19919;-83
2021/06/23 02:02:34;;;;;;;;;;;14.30;99.90;;;;;;5128414;27;19942;-83
2021/06/23 02:05:02;;;;;;;;;;;14.30;99.90;;;;;;5126936;27;19940;-83
2021/06/23 02:07:31;;;;;;;;;;;14.30;99.90;;;;;;5124759;27;19923;-83
2021/06/23 02:10:23;;;;;;;;;;;14.30;99.90;;;;;;5127958;27;19923;-83
2021/06/23 02:13:08;;;;;;;;;;;14.30;99.90;;;;;;5111608;27;19954;-82
2021/06/23 02:15:34;;;;;;;;;;;14.30;99.90;;;;;;5127978;27;20002;-83
2021/06/23 02:17:59;;;;;;;;;;;14.30;99.90;;;;;;5127517;27;19923;-82
2021/06/23 02:20:25;;;;;;;;;;;14.30;99.90;;;;;;5127142;27;20298;-83
2021/06/23 02:22:52;;;;;;;;;;;14.30;99.90;;;;;;5128357;27;19991;-83
2021/06/23 02:25:18;;;;;;;;;;;14.30;99.90;;;;;;5110863;27;19947;-83
2021/06/23 02:27:44;;;;;;;;;;;14.30;99.90;;;;;;5127834;27;19965;-83
2021/06/23 02:30:11;;;;;;;;;;;14.20;99.90;;;;;;5127527;27;20382;-82
2021/06/23 02:32:40;;;;;;;;;;;14.20;99.90;;;;;;5128500;27;20285;-83
2021/06/23 02:35:07;;;;;;;;;;;14.20;99.90;;;;;;5124495;27;20386;-82
2021/06/23 02:37:34;;;;;;;;;;;14.10;99.90;;;;;;5109188;27;20160;-82
2021/06/23 02:40:00;;;;;;;;;;;14.10;99.90;;;;;;5125580;27;19915;-83
2021/06/23 02:42:26;;;;;;;;;;;14.10;99.90;;;;;;5127799;27;19922;-83
2021/06/23 02:44:51;;;;;;;;;;;14.10;99.90;;;;;;5127796;27;19919;-82
2021/06/23 02:47:19;;;;;;;;;;;14.10;99.90;;;;;;5127488;27;19924;-83
2021/06/23 02:49:48;;;;;;;;;;;14.20;99.90;;;;;;5124726;27;19925;-82
2021/06/23 02:52:14;;;;;;;;;;;14.20;99.90;;;;;;5129484;27;19915;-83
2021/06/23 02:54:41;;;;;;;;;;;14.20;99.90;;;;;;5125586;27;19931;-83
2021/06/23 02:57:07;;;;;;;;;;;14.20;99.90;;;;;;5111056;27;19981;-83
2021/06/23 02:59:34;;;;;;;;;;;14.20;99.90;;;;;;5109256;28;19976;-82
2021/06/23 03:02:00;;;;;;;;;;;14.20;99.90;;;;;;5128590;28;19919;-82
2021/06/23 03:04:26;;;;;;;;;;;14.20;99.90;;;;;;5108852;28;20428;-82
2021/06/23 03:06:51;;;;;;;;;;;14.20;99.90;;;;;;5109548;28;20027;-83
2021/06/23 03:09:17;;;;;;;;;;;14.30;99.90;;;;;;5128024;28;19954;-82
2021/06/23 03:11:43;;;;;;;;;;;14.30;99.90;;;;;;5128154;27;19919;-83
2021/06/23 03:14:09;;;;;;;;;;;14.30;99.90;;;;;;5131659;27;19966;-82
2021/06/23 03:16:36;;;;;;;;;;;14.30;99.90;;;;;;5131255;27;19919;-83
2021/06/23 03:19:02;;;;;;;;;;;14.30;99.90;;;;;;5128251;27;19930;-82
2021/06/23 03:21:28;;;;;;;;;;;14.30;99.90;;;;;;5130401;27;20374;-82
2021/06/23 03:23:54;;;;;;;;;;;14.30;99.90;;;;;;5114298;27;19968;-82
2021/06/23 03:26:20;;;;;;;;;;;14.30;99.90;;;;;;5126998;27;19923;-83
2021/06/23 03:28:46;;;;;;;;;;;14.30;99.90;;;;;;5131423;27;19987;-82
2021/06/23 03:31:12;;;;;;;;;;;14.30;99.90;;;;;;5110485;27;20017;-82
2021/06/23 03:33:38;;;;;;;;;;;14.30;99.90;;;;;;5133284;27;19930;-82
2021/06/23 03:36:05;;;;;;;;;;;14.40;99.90;;;;;;5113196;27;19919;-82
2021/06/23 03:38:31;;;;;;;;;;;14.30;99.90;;;;;;5113075;27;19923;-82
2021/06/23 03:40:57;;;;;;;;;;;14.40;99.90;;;;;;5130053;27;20354;-82
2021/06/23 03:43:23;;;;;;;;;;;14.30;99.90;;;;;;5131651;27;19925;-82
2021/06/23 03:45:49;;;;;;;;;;;14.30;99.90;;;;;;5130429;27;19920;-82
2021/06/23 03:48:15;;;;;;;;;;;14.40;99.90;;;;;;5130057;27;19924;-82
2021/06/23 03:50:44;;;;;;;;;;;14.30;99.90;;;;;;5111583;27;19916;-82
2021/06/23 03:53:10;;;;;;;;;;;14.30;99.90;;;;;;5131332;27;19919;-83
2021/06/23 03:55:35;;;;;;;;;;;14.30;99.90;;;;;;5113667;27;19919;-83
2021/06/23 03:58:02;;;;;;;;;;;14.30;99.90;;;;;;5110779;27;19943;-83
2021/06/23 04:00:29;;;;;;;;;;;14.30;99.90;;;;;;5131638;27;20468;-82
2021/06/23 04:02:56;;;;;;;;;;;14.30;99.90;;;;;;5128542;27;19924;-82
2021/06/23 04:05:23;;;;;;;;;;;14.20;99.90;;;;;;5128824;27;19954;-82
2021/06/23 04:07:49;;;;;;;;;;;14.20;99.90;;;;;;5129553;27;19954;-83
2021/06/23 04:10:15;;;;;;;;;;;14.20;99.90;;;;;;5131597;27;20458;-83
2021/06/23 04:12:42;;;;;;;;;;;14.10;99.90;;;;;;5130867;27;20045;-82
2021/06/23 04:15:09;;;;;;;;;;;14.10;99.90;;;;;;5130551;27;20013;-82
2021/06/23 04:17:35;;;;;;;;;;;14.10;99.90;;;;;;5128260;27;19934;-83
2021/06/23 04:20:07;;;;;;;;;;;14.10;99.90;;;;;;5130683;27;19911;-83
2021/06/23 04:22:32;;;;;;;;;;;14.00;99.90;;;;;;5127976;27;20085;-82
2021/06/23 04:24:58;;;;;;;;;;;14.10;99.90;;;;;;5114626;27;20433;-82
2021/06/23 04:27:24;;;;;;;;;;;14.10;99.90;;;;;;5110521;27;20375;-82
2021/06/23 04:29:50;;;;;;;;;;;14.10;99.90;;;;;;5129423;27;19924;-83
2021/06/23 04:32:16;;;;;;;;;;;14.00;99.90;;;;;;5094887;27;19944;-82
2021/06/23 04:34:42;;;;;;;;;;;14.10;99.90;;;;;;5133343;27;20022;-82
2021/06/23 04:37:08;;;;;;;;;;;14.00;99.90;;;;;;5129255;27;20014;-83
2021/06/23 04:39:35;;;;;;;;;;;14.10;99.90;;;;;;5129968;27;19919;-82
2021/06/23 04:42:00;;;;;;;;;;;14.10;99.90;;;;;;5125557;27;19972;-82
2021/06/23 04:44:27;;;;;;;;;;;14.10;99.90;;;;;;5128670;27;19919;-82
2021/06/23 04:46:52;;;;;;;;;;;14.10;99.90;;;;;;5130286;27;20725;-82
2021/06/23 04:49:18;;;;;;;;;;;14.10;99.90;;;;;;5126877;27;19958;-82
2021/06/23 04:51:44;;;;;;;;;;;14.10;99.90;;;;;;5113568;27;19927;-83
2021/06/23 04:54:11;;;;;;;;;;;14.10;99.90;;;;;;5111710;27;19921;-82
2021/06/23 04:56:36;;;;;;;;;;;14.10;99.90;;;;;;5110474;27;19916;-83
2021/06/23 04:59:02;;;;;;;;;;;14.10;99.90;;;;;;5111650;27;19926;-83
2021/06/23 05:01:28;;;;;;;;;;;14.10;99.90;;;;;;5110658;27;19960;-82
2021/06/23 05:03:53;;;;;;;;;;;14.10;99.90;;;;;;5126411;27;19925;-82
2021/06/23 05:06:19;;;;;;;;;;;14.20;99.90;;;;;;5109355;27;20372;-82
2021/06/23 05:08:45;;;;;;;;;;;14.20;99.90;;;;;;5127664;27;20010;-83
2021/06/23 05:11:10;;;;;;;;;;;14.20;99.90;;;;;;5129335;27;19919;-82
2021/06/23 05:13:37;;;;;;;;;;;14.20;99.90;;;;;;5094525;27;19958;-82
2021/06/23 05:16:04;;;;;;;;;;;14.30;99.90;;;;;;5129172;27;19941;-82
2021/06/23 05:18:30;;;;;;;;;;;14.30;99.90;;;;;;5112583;27;19923;-83
2021/06/23 05:20:57;;;;;;;;;;;14.30;99.90;;;;;;5131060;27;19947;-83
2021/06/23 05:23:23;;;;;;;;;;;14.30;99.90;;;;;;5129814;27;19927;-82
2021/06/23 05:25:48;;;;;;;;;;;14.40;99.90;;;;;;5126671;27;19985;-83
2021/06/23 05:28:14;;;;;;;;;;;14.30;99.90;;;;;;5140227;27;19948;-82
2021/06/23 05:30:40;;;;;;;;;;;14.30;99.90;;;;;;5092795;27;20021;-82
2021/06/23 05:33:05;;;;;;;;;;;14.40;99.90;;;;;;5151673;27;20358;-83
2021/06/23 05:35:31;;;;;;;;;;;14.40;99.90;;;;;;5121029;27;19915;-83
2021/06/23 05:37:57;;;;;;;;;;;14.30;99.90;;;;;;5112277;27;20279;-82
2021/06/23 05:40:23;;;;;;;;;;;14.30;99.90;;;;;;5115705;27;19923;-82
2021/06/23 05:42:49;;;;;;;;;;;14.40;99.90;;;;;;5113163;27;19912;-82
2021/06/23 05:45:15;;;;;;;;;;;14.30;99.90;;;;;;5113679;27;19919;-82
2021/06/23 05:47:41;;;;;;;;;;;14.30;99.90;;;;;;5115486;27;20013;-83
2021/06/23 05:50:07;;;;;;;;;;;14.30;99.90;;;;;;5151773;27;19967;-82
2021/06/23 05:52:33;;;;;;;;;;;14.20;99.90;;;;;;5112572;27;19915;-82
2021/06/23 05:54:58;;;;;;;;;;;14.20;99.90;;;;;;5112765;27;19964;-82
2021/06/23 05:57:24;;;;;;;;;;;14.20;99.90;;;;;;5111890;27;19937;-83
2021/06/23 05:59:50;;;;;;;;;;;14.30;99.90;;;;;;5119247;27;19964;-83
2021/06/23 06:02:15;;;;;;;;;;;14.20;99.90;;;;;;5132659;27;19967;-82
2021/06/23 06:04:41;;;;;;;;;;;14.20;99.90;;;;;;5114515;27;19926;-82
2021/06/23 06:07:07;;;;;;;;;;;14.20;99.90;;;;;;5122811;27;19926;-83
2021/06/23 06:09:32;;;;;;;;;;;14.20;99.90;;;;;;5110172;27;20014;-82
2021/06/23 06:11:58;;;;;;;;;;;14.30;99.90;;;;;;5112417;27;19926;-82
2021/06/23 06:14:24;;;;;;;;;;;14.30;99.90;;;;;;5112475;27;19926;-82
2021/06/23 06:16:50;;;;;;;;;;;14.30;99.90;;;;;;5106277;27;19920;-83
2021/06/23 06:19:16;;;;;;;;;;;14.30;99.90;;;;;;5109351;27;19968;-82
2021/06/23 06:21:42;;;;;;;;;;;14.40;99.90;;;;;;5113365;27;19969;-82
2021/06/23 06:24:07;;;;;;;;;;;14.40;99.90;;;;;;5112230;27;20367;-82
2021/06/23 06:26:33;;;;;;;;;;;14.30;99.90;;;;;;5107273;27;20030;-82
2021/06/23 06:28:59;;;;;;;;;;;14.30;99.90;;;;;;5108567;27;20279;-82
2021/06/23 06:31:24;;;;;;;;;;;14.30;99.90;;;;;;5112029;27;19922;-82
2021/06/23 06:33:51;;;;;;;;;;;14.40;99.90;;;;;;5116802;27;19958;-83
2021/06/23 06:36:17;;;;;;;;;;;14.40;99.90;;;;;;5130068;27;19919;-83
2021/06/23 06:38:43;;;;;;;;;;;14.40;99.90;;;;;;5127933;27;20553;-82
2021/06/23 06:41:10;;;;;;;;;;;14.40;99.90;;;;;;5112303;27;19923;-82
2021/06/23 06:43:36;;;;;;;;;;;14.30;99.90;;;;;;5150747;27;20013;-83
2021/06/23 06:46:02;;;;;;;;;;;14.30;99.90;;;;;;5130558;27;19923;-82
2021/06/23 06:48:28;;;;;;;;;;;14.30;99.90;;;;;;5130243;27;19963;-82
2021/06/23 06:50:53;;;;;;;;;;;14.40;99.90;;;;;;5107404;27;19923;-83
2021/06/23 06:56:41;;;;;;;;;;;14.40;99.90;;;;;;5135961;27;19952;-82
2021/06/23 06:59:08;;;;;;;;;;;14.50;99.90;;;;;;5093888;28;19919;-82
2021/06/23 07:01:34;;;;;;;;;;;14.60;99.90;;;;;;5112852;27;19929;-82
2021/06/23 07:04:00;;;;;;;;;;;14.60;99.90;;;;;;5132046;27;19948;-82
2021/06/23 07:06:26;;;;;;;;;;;14.60;99.90;;;;;;5128856;27;19999;-83
2021/06/23 07:08:52;;;;;;;;;;;14.60;99.90;;;;;;5130883;27;20361;-82
2021/06/23 07:11:17;;;;;;;;;;;14.60;99.90;;;;;;5147579;27;20259;-82
2021/06/23 07:13:43;;;;;;;;;;;14.50;99.90;;;;;;5131000;27;20391;-82
2021/06/23 07:16:09;;;;;;;;;;;14.50;99.90;;;;;;5149491;27;19926;-82
2021/06/23 07:18:35;;;;;;;;;;;14.60;99.90;;;;;;5107434;28;19911;-83
2021/06/23 07:21:00;;;;;;;;;;;14.60;99.90;;;;;;5114822;27;20009;-82
2021/06/23 07:23:26;;;;;;;;;;;14.60;99.90;;;;;;5119214;28;19911;-82
2021/06/23 07:25:52;;;;;;;;;;;14.60;99.90;;;;;;5128037;27;19925;-82
2021/06/23 07:28:25;;;;;;;;;;;14.60;99.90;;;;;;5113025;27;19919;-82
2021/06/23 07:30:50;;;;;;;;;;;14.60;99.90;;;;;;5078593;28;20342;-82
2021/06/23 07:33:17;;;;;;;;;;;14.60;99.90;;;;;;5111360;27;19915;-82
2021/06/23 07:38:26;;;;;;;;;;;14.60;99.90;;;;;;5128652;27;19923;-83
2021/06/23 07:40:59;;;;;;;;;;;14.60;99.90;;;;;;5121636;27;20331;-83
2021/06/23 07:43:26;;;;;;;;;;;14.50;99.90;;;;;;5129260;27;19923;-82
2021/06/23 07:45:54;;;;;;;;;;;14.60;99.90;;;;;;5111644;28;19976;-83
2021/06/23 07:48:26;;;;;;;;;;;14.60;99.90;;;;;;5111175;28;19973;-82
2021/06/23 07:51:02;;;;;;;;;;;14.60;99.90;;;;;;5129500;28;19923;-83
2021/06/23 07:53:31;;;;;;;;;;;14.70;99.90;;;;;;5098374;27;19920;-82
2021/06/23 08:09:32;;;;;;;;;;;14.90;99.90;;;;;;5134431;27;20396;-82
2021/06/23 08:14:53;;;;;;;;;;;15.00;99.90;;;;;;5102488;27;20365;-82
2021/06/23 08:17:18;;;;;;;;;;;15.00;99.90;;;;;;5131503;27;20006;-83
2021/06/23 08:19:44;;;;;;;;;;;15.10;99.90;;;;;;5133001;27;19965;-82
2021/06/23 08:22:11;;;;;;;;;;;15.10;99.90;;;;;;5152016;27;20380;-82
2021/06/23 08:24:38;;;;;;;;;;;15.10;99.90;;;;;;5132202;27;20064;-82
2021/06/23 08:27:04;;;;;;;;;;;15.20;99.90;;;;;;5149927;27;19923;-83
2021/06/23 08:29:30;;;;;;;;;;;15.20;99.90;;;;;;5132642;27;19929;-82
2021/06/23 08:31:57;;;;;;;;;;;15.20;99.90;;;;;;5132246;27;20742;-82
2021/06/23 08:34:25;;;;;;;;;;;15.20;99.90;;;;;;5115406;27;19933;-83
2021/06/23 08:36:51;;;;;;;;;;;15.20;99.90;;;;;;5115348;27;19925;-82
2021/06/23 08:39:17;;;;;;;;;;;15.20;99.90;;;;;;5131211;27;20646;-82
2021/06/23 08:41:42;;;;;;;;;;;15.30;99.90;;;;;;5098791;27;19970;-82
2021/06/23 08:44:08;;;;;;;;;;;15.40;99.90;;;;;;5151109;27;19929;-83
2021/06/23 08:46:36;;;;;;;;;;;15.40;99.90;;;;;;5106154;27;19919;-83
2021/06/23 08:49:02;;;;;;;;;;;15.50;99.90;;;;;;5132359;27;20448;-83
2021/06/23 08:51:28;;;;;;;;;;;15.50;99.90;;;;;;5106335;27;19961;-82
2021/06/23 08:53:54;;;;;;;;;;;15.60;99.90;;;;;;5132966;27;19968;-82
2021/06/23 08:56:20;;;;;;;;;;;15.60;99.90;;;;;;5131466;27;19961;-83
2021/06/23 08:58:46;;;;;;;;;;;15.70;99.90;;;;;;5130987;27;20411;-82
2021/06/23 09:01:12;;;;;;;;;;;15.80;99.90;;;;;;5112641;27;19920;-82
2021/06/23 09:03:57;;;;;;;;;;;15.90;99.90;;;;;;5113664;27;19925;-83
2021/06/23 09:06:41;;;;;;;;;;;15.90;99.90;;;;;;5149977;27;19958;-83
2021/06/23 09:09:24;;;;;;;;;;;15.90;99.90;;;;;;5148972;27;19919;-83
2021/06/23 09:11:51;;;;;;;;;;;15.80;99.90;;;;;;5150651;27;19923;-82
2021/06/23 09:14:17;;;;;;;;;;;15.80;99.90;;;;;;5149446;27;19923;-83
2021/06/23 09:17:01;;;;;;;;;;;15.80;99.90;;;;;;5132571;27;20770;-82
2021/06/23 09:19:28;;;;;;;;;;;15.90;99.90;;;;;;5132151;27;19919;-83
2021/06/23 09:21:53;;;;;;;;;;;15.80;99.90;;;;;;5115283;27;19919;-83
2021/06/23 09:24:19;;;;;;;;;;;15.90;99.90;;;;;;5099403;27;19926;-82
2021/06/23 09:26:45;;;;;;;;;;;15.90;99.90;;;;;;5130325;27;20297;-83
2021/06/23 09:29:18;;;;;;;;;;;15.90;99.90;;;;;;5113077;27;19983;-83
2021/06/23 09:31:49;;;;;;;;;;;15.90;99.90;;;;;;5130442;27;20453;-83
2021/06/23 09:34:30;;;;;;;;;;;16.00;99.90;;;;;;5131341;27;19926;-83
2021/06/23 09:36:56;;;;;;;;;;;16.00;99.90;;;;;;5132147;27;19971;-84
2021/06/23 09:39:24;;;;;;;;;;;15.90;99.90;;;;;;5113222;27;19919;-84
2021/06/23 09:41:50;;;;;;;;;;;15.90;99.90;;;;;;5131014;27;19973;-84
2021/06/23 09:44:17;;;;;;;;;;;15.90;99.90;;;;;;5131393;27;19923;-84
2021/06/23 09:46:45;;;;;;;;;;;15.90;99.90;;;;;;5113326;27;20676;-84
2021/06/23 09:49:12;;;;;;;;;;;15.90;99.90;;;;;;5111744;27;20388;-84
2021/06/23 09:51:42;;;;;;;;;;;16.00;99.90;;;;;;5131351;27;19941;-82
2021/06/23 09:54:09;;;;;;;;;;;16.00;99.90;;;;;;5131420;27;20297;-82
2021/06/23 09:56:38;;;;;;;;;;;15.90;99.90;;;;;;5131759;27;19919;-82
2021/06/23 09:59:05;;;;;;;;;;;15.90;99.90;;;;;;5130390;27;19919;-84
2021/06/23 10:01:36;;;;;;;;;;;16.00;99.90;;;;;;5131244;27;20007;-84
2021/06/23 10:04:07;;;;;;;;;;;16.00;99.90;;;;;;5130105;27;19923;-83
2021/06/23 10:06:43;;;;;;;;;;;16.00;99.90;;;;;;5112883;27;20385;-83
2021/06/23 10:09:15;;;;;;;;;;;16.10;99.90;;;;;;5150041;27;19934;-83
2021/06/23 10:14:53;;;;;;;;;;;16.10;99.90;;;;;;5145865;27;19915;-82
2021/06/23 10:17:22;;;;;;;;;;;16.10;99.90;;;;;;5130309;27;19919;-82
2021/06/23 10:19:48;;;;;;;;;;;16.20;99.90;;;;;;5130434;27;20271;-82
2021/06/23 10:22:14;;;;;;;;;;;16.10;99.90;;;;;;5106078;27;19964;-83
2021/06/23 10:24:40;;;;;;;;;;;16.20;99.90;;;;;;5130929;27;20675;-84
2021/06/23 10:27:10;;;;;;;;;;;16.10;99.90;;;;;;5150036;27;19922;-83
2021/06/23 10:29:38;;;;;;;;;;;16.20;99.90;;;;;;5128901;27;19920;-83
2021/06/23 10:32:05;;;;;;;;;;;16.20;99.90;;;;;;5148923;27;19926;-83
2021/06/23 10:34:31;;;;;;;;;;;16.30;99.90;;;;;;5145020;27;19954;-83
2021/06/23 10:36:57;;;;;;;;;;;16.30;99.90;;;;;;5131165;27;19922;-83
2021/06/23 10:39:24;;;;;;;;;;;16.40;99.90;;;;;;5130078;27;19919;-83
2021/06/23 10:41:52;;;;;;;;;;;16.30;99.90;;;;;;5130682;27;19919;-82
2021/06/23 10:44:22;;;;;;;;;;;16.40;99.90;;;;;;5119458;27;20011;-82
2021/06/23 10:46:53;;;;;;;;;;;16.50;99.90;;;;;;5148441;27;19919;-82
2021/06/23 10:49:51;;;;;;;;;;;16.50;99.90;;;;;;5113935;27;19921;-83
2021/06/23 10:52:20;;;;;;;;;;;16.60;99.90;;;;;;5114740;27;19916;-84
2021/06/23 10:54:50;;;;;;;;;;;16.60;99.90;;;;;;5128662;27;20500;-83
2021/06/23 10:57:29;;;;;;;;;;;16.70;99.90;;;;;;5130941;27;20385;-84
2021/06/23 10:59:56;;;;;;;;;;;16.70;99.90;;;;;;5144833;27;19919;-84
2021/06/23 11:02:34;;;;;;;;;;;16.70;99.90;;;;;;5129465;27;20427;-84
2021/06/23 11:05:04;;;;;;;;;;;16.80;99.90;;;;;;5130543;27;20055;-84
2021/06/23 11:07:33;;;;;;;;;;;16.80;99.90;;;;;;5120764;28;19998;-83
2021/06/23 11:10:11;;;;;;;;;;;16.80;99.90;;;;;;5111813;28;20025;-83
2021/06/23 11:12:46;;;;;;;;;;;16.80;99.90;;;;;;5094994;28;19919;-83
2021/06/23 11:15:14;;;;;;;;;;;16.90;99.90;;;;;;5121241;27;19914;-83
2021/06/23 11:17:40;;;;;;;;;;;16.90;99.90;;;;;;5150273;27;20387;-83
2021/06/23 11:20:18;;;;;;;;;;;16.90;99.90;;;;;;5149895;27;19942;-83
2021/06/23 11:22:44;;;;;;;;;;;16.90;99.90;;;;;;5131483;27;19951;-83
2021/06/23 11:25:36;;;;;;;;;;;16.90;99.90;;;;;;5148602;27;19923;-82
2021/06/23 11:28:08;;;;;;;;;;;16.90;99.90;;;;;;5125340;27;19927;-83
2021/06/23 11:30:35;;;;;;;;;;;17.00;99.90;;;;;;5131604;27;19919;-83
2021/06/23 11:33:19;;;;;;;;;;;17.10;99.90;;;;;;5114649;27;19933;-83
2021/06/23 11:35:45;;;;;;;;;;;17.10;99.90;;;;;;5098190;27;20370;-83
2021/06/23 11:38:11;;;;;;;;;;;17.10;99.90;;;;;;5113671;27;19919;-82
2021/06/23 11:40:36;;;;;;;;;;;17.10;99.90;;;;;;5110153;27;19919;-82
2021/06/23 11:43:02;;;;;;;;;;;17.10;99.90;;;;;;5115567;27;19919;-83
2021/06/23 11:45:28;;;;;;;;;;;17.10;99.90;;;;;;5106582;27;19920;-82
2021/06/23 11:47:54;;;;;;;;;;;17.20;99.90;;;;;;5104622;27;19919;-83
2021/06/23 11:50:21;;;;;;;;;;;17.10;99.90;;;;;;5100903;27;19953;-83
2021/06/23 11:52:46;;;;;;;;;;;17.10;99.90;;;;;;5114804;27;20397;-83
2021/06/23 11:55:23;;;;;;;;;;;17.10;99.90;;;;;;5107575;27;19919;-83
2021/06/23 11:57:49;;;;;;;;;;;17.10;99.90;;;;;;5124134;27;20259;-83
2021/06/23 12:00:15;;;;;;;;;;;17.10;99.90;;;;;;5105210;27;19919;-83
2021/06/23 12:02:41;;;;;;;;;;;17.20;99.90;;;;;;5080436;27;19942;-83
2021/06/23 12:05:06;;;;;;;;;;;17.20;99.90;;;;;;5116297;27;20008;-83
2021/06/23 12:07:32;;;;;;;;;;;17.20;99.90;;;;;;5145142;27;20139;-83
2021/06/23 12:09:58;;;;;;;;;;;17.30;99.90;;;;;;5125240;27;19918;-83
2021/06/23 12:12:24;;;;;;;;;;;17.30;99.90;;;;;;5119935;27;19926;-83
2021/06/23 12:14:49;;;;;;;;;;;17.30;99.90;;;;;;5114313;27;19922;-82
2021/06/23 12:17:15;;;;;;;;;;;17.30;99.90;;;;;;5134001;27;19919;-81
2021/06/23 12:19:41;;;;;;;;;;;17.40;99.90;;;;;;5104737;27;20385;-81
2021/06/23 12:22:09;;;;;;;;;;;17.50;99.90;;;;;;5107292;27;20010;-82
2021/06/23 12:24:34;;;;;;;;;;;17.50;99.90;;;;;;5151285;27;19930;-81
2021/06/23 12:27:00;;;;;;;;;;;17.60;99.90;;;;;;5132513;27;19919;-82
2021/06/23 12:29:26;;;;;;;;;;;17.60;99.90;;;;;;5129121;27;20017;-82
2021/06/23 12:31:51;;;;;;;;;;;17.60;99.90;;;;;;5112235;27;20005;-82
2021/06/23 12:34:17;;;;;;;;;;;17.70;99.90;;;;;;5114250;27;19945;-82
2021/06/23 12:36:44;;;;;;;;;;;17.70;99.90;;;;;;5132821;27;19930;-82
2021/06/23 12:39:10;;;;;;;;;;;17.70;99.90;;;;;;5129389;27;19915;-82
2021/06/23 12:41:36;;;;;;;;;;;17.70;99.90;;;;;;5126472;27;20935;-82
2021/06/23 12:44:01;;;;;;;;;;;17.70;99.90;;;;;;5130395;27;19942;-82
2021/06/23 12:46:28;;;;;;;;;;;17.70;99.90;;;;;;5095668;27;20370;-83
2021/06/23 12:48:54;;;;;;;;;;;17.80;99.90;;;;;;5130057;27;19926;-82
2021/06/23 12:51:19;;;;;;;;;;;17.80;99.90;;;;;;5131576;27;19998;-82
2021/06/23 12:53:45;;;;;;;;;;;17.80;99.90;;;;;;5150257;27;20010;-82
2021/06/23 12:56:11;;;;;;;;;;;17.70;99.90;;;;;;5114392;27;19975;-82
2021/06/23 12:58:37;;;;;;;;;;;17.70;99.90;;;;;;5132453;27;19954;-82
2021/06/23 13:01:03;;;;;;;;;;;17.70;99.90;;;;;;5112758;27;19919;-82
2021/06/23 13:03:28;;;;;;;;;;;17.60;99.90;;;;;;5120926;27;19964;-82
2021/06/23 13:05:59;;;;;;;;;;;17.60;99.90;;;;;;5113920;27;20438;-82
2021/06/23 13:08:25;;;;;;;;;;;17.60;99.90;;;;;;5113405;27;20377;-82
2021/06/23 13:10:50;;;;;;;;;;;17.50;99.90;;;;;;5112865;27;19915;-83
2021/06/23 13:13:16;;;;;;;;;;;17.40;99.90;;;;;;5114640;27;19971;-82
2021/06/23 13:15:42;;;;;;;;;;;17.40;99.90;;;;;;5110874;27;19922;-83
2021/06/23 13:18:09;;;;;;;;;;;17.40;99.90;;;;;;5131443;27;20326;-82
2021/06/23 13:20:35;;;;;;;;;;;17.40;99.90;;;;;;5130404;27;19930;-82
2021/06/23 13:23:01;;;;;;;;;;;17.40;99.90;;;;;;5132853;27;20387;-82
2021/06/23 13:25:27;;;;;;;;;;;17.30;99.90;;;;;;5113742;27;19919;-82
2021/06/23 13:27:53;;;;;;;;;;;17.20;99.90;;;;;;5129568;27;20007;-82
2021/06/23 13:30:19;;;;;;;;;;;17.20;99.90;;;;;;5130859;27;20364;-83
2021/06/23 13:32:45;;;;;;;;;;;17.20;99.90;;;;;;5149570;27;19925;-83
2021/06/23 13:35:12;;;;;;;;;;;17.20;99.90;;;;;;5091731;27;19915;-83
2021/06/23 13:37:37;;;;;;;;;;;17.10;99.90;;;;;;5132149;27;19923;-85
2021/06/23 13:40:03;;;;;;;;;;;17.10;99.90;;;;;;5106287;27;19918;-82
2021/06/23 13:42:30;;;;;;;;;;;17.20;99.90;;;;;;5131470;27;19957;-83
2021/06/23 13:44:56;;;;;;;;;;;17.20;99.90;;;;;;5107974;27;19918;-83
2021/06/23 13:47:22;;;;;;;;;;;17.20;99.90;;;;;;5107033;27;19926;-82
2021/06/23 13:49:49;;;;;;;;;;;17.20;99.90;;;;;;5128961;27;19922;-83
2021/06/23 13:52:15;;;;;;;;;;;17.20;99.90;;;;;;5106800;27;19968;-83
2021/06/23 13:54:41;;;;;;;;;;;17.20;99.90;;;;;;5149881;27;19926;-83
2021/06/23 13:57:09;;;;;;;;;;;17.20;99.90;;;;;;5131079;27;19978;-84
2021/06/23 13:59:35;;;;;;;;;;;17.20;99.90;;;;;;5132244;27;19919;-83
2021/06/23 14:02:00;;;;;;;;;;;17.20;99.90;;;;;;5108724;27;20374;-83
2021/06/23 14:04:26;;;;;;;;;;;17.20;99.90;;;;;;5131279;27;20010;-84
2021/06/23 14:06:52;;;;;;;;;;;17.20;99.90;;;;;;5149630;27;19923;-84
2021/06/23 14:09:18;;;;;;;;;;;17.20;99.90;;;;;;5147896;27;19972;-83
2021/06/23 14:11:43;;;;;;;;;;;17.20;99.90;;;;;;5130696;27;19919;-84
2021/06/23 14:14:10;;;;;;;;;;;17.20;99.90;;;;;;5113970;27;19919;-84
2021/06/23 14:16:35;;;;;;;;;;;17.20;99.90;;;;;;5107676;27;19925;-84
2021/06/23 14:19:01;;;;;;;;;;;17.20;99.90;;;;;;5108101;27;20049;-83
2021/06/23 14:21:28;;;;;;;;;;;17.30;99.90;;;;;;5105131;27;19968;-82
2021/06/23 14:23:54;;;;;;;;;;;17.30;99.90;;;;;;5130532;27;19919;-84
2021/06/23 14:26:19;;;;;;;;;;;17.40;99.90;;;;;;5116279;27;20301;-84
2021/06/23 14:28:45;;;;;;;;;;;17.40;99.90;;;;;;5130461;27;19919;-82
2021/06/23 14:31:11;;;;;;;;;;;17.50;99.90;;;;;;5113511;27;20396;-83
2021/06/23 14:33:36;;;;;;;;;;;17.50;99.90;;;;;;5130004;27;19998;-84
2021/06/23 14:36:02;;;;;;;;;;;17.50;99.90;;;;;;5128723;27;19919;-83
2021/06/23 14:38:28;;;;;;;;;;;17.50;99.90;;;;;;5130505;27;20009;-83
2021/06/23 14:40:54;;;;;;;;;;;17.50;99.90;;;;;;5112416;27;20315;-83